sensor_id;sensor_type;location;lat;lon;timestamp;P1;durP1;ratioP1;P2;durP2;ratioP2
3881;SDS011;1956;53.482;10.238;2023-04-24T00:04:59;5.85;;;5.28;;
3881;SDS011;1956;53.482;10.238;2023-04-24T00:10:02;6.77;;;4.80;;
3881;SDS011;1956;53.482;10.238;2023-04-24T00:15:03;6.07;;;5.47;;
3881;SDS011;1956;53.482;10.238;2023-04-24T00:20:03;9.20;;;5.40;;
3881;SDS011;1956;53.482;10.238;2023-04-24T00:25:04;10.13;;;5.50;;
3881;SDS011;1956;53.482;10.238;2023-04-24T00:30:06;6.00;;;5.40;;
3881;SDS011;1956;53.482;10.238;2023-04-24T00:35:06;6.20;;;5.60;;
3881;SDS011;1956;53.482;10.238;2023-04-24T00:40:07;5.40;;;4.90;;
3881;SDS011;1956;53.482;10.238;2023-04-24T00:45:08;5.50;;;4.97;;
3881;SDS011;1956;53.482;10.238;2023-04-24T00:50:08;6.00;;;5.23;;
3881;SDS011;1956;53.482;10.238;2023-04-24T00:55:08;6.60;;;5.40;;
3881;SDS011;1956;53.482;10.238;2023-04-24T01:00:09;5.93;;;5.23;;
3881;SDS011;1956;53.482;10.238;2023-04-24T01:05:13;6.17;;;5.57;;
3881;SDS011;1956;53.482;10.238;2023-04-24T01:10:13;5.60;;;5.10;;
3881;SDS011;1956;53.482;10.238;2023-04-24T01:15:14;5.87;;;5.10;;
3881;SDS011;1956;53.482;10.238;2023-04-24T01:20:14;6.07;;;4.67;;
3881;SDS011;1956;53.482;10.238;2023-04-24T01:25:15;5.33;;;4.77;;
3881;SDS011;1956;53.482;10.238;2023-04-24T01:30:15;5.30;;;4.63;;
3881;SDS011;1956;53.482;10.238;2023-04-24T01:35:16;6.10;;;5.50;;
3881;SDS011;1956;53.482;10.238;2023-04-24T01:40:16;5.10;;;4.50;;
3881;SDS011;1956;53.482;10.238;2023-04-24T01:45:16;5.60;;;5.00;;
3881;SDS011;1956;53.482;10.238;2023-04-24T01:50:17;5.97;;;5.07;;
3881;SDS011;1956;53.482;10.238;2023-04-24T01:55:17;4.23;;;3.83;;
3881;SDS011;1956;53.482;10.238;2023-04-24T02:00:17;4.55;;;4.13;;
3881;SDS011;1956;53.482;10.238;2023-04-24T02:05:17;4.10;;;3.80;;
3881;SDS011;1956;53.482;10.238;2023-04-24T02:10:18;4.30;;;3.90;;
3881;SDS011;1956;53.482;10.238;2023-04-24T02:15:18;5.43;;;4.93;;
3881;SDS011;1956;53.482;10.238;2023-04-24T02:20:18;4.67;;;4.20;;
3881;SDS011;1956;53.482;10.238;2023-04-24T02:25:19;4.53;;;3.78;;
3881;SDS011;1956;53.482;10.238;2023-04-24T02:30:19;4.47;;;3.50;;
3881;SDS011;1956;53.482;10.238;2023-04-24T02:35:19;4.23;;;3.33;;
3881;SDS011;1956;53.482;10.238;2023-04-24T02:40:20;3.07;;;2.87;;
3881;SDS011;1956;53.482;10.238;2023-04-24T02:45:20;3.53;;;3.23;;
3881;SDS011;1956;53.482;10.238;2023-04-24T02:50:20;2.97;;;2.78;;
3881;SDS011;1956;53.482;10.238;2023-04-24T02:55:21;2.70;;;2.33;;
3881;SDS011;1956;53.482;10.238;2023-04-24T03:00:21;2.47;;;2.27;;
3881;SDS011;1956;53.482;10.238;2023-04-24T03:05:21;2.90;;;2.27;;
3881;SDS011;1956;53.482;10.238;2023-04-24T03:10:21;1.88;;;1.75;;
3881;SDS011;1956;53.482;10.238;2023-04-24T03:15:24;1.87;;;1.77;;
3881;SDS011;1956;53.482;10.238;2023-04-24T03:20:25;1.97;;;1.87;;
3881;SDS011;1956;53.482;10.238;2023-04-24T03:25:25;1.53;;;1.43;;
3881;SDS011;1956;53.482;10.238;2023-04-24T03:30:25;2.77;;;2.57;;
3881;SDS011;1956;53.482;10.238;2023-04-24T03:35:26;2.27;;;1.50;;
3881;SDS011;1956;53.482;10.238;2023-04-24T03:40:26;1.50;;;1.40;;
3881;SDS011;1956;53.482;10.238;2023-04-24T03:45:28;1.70;;;1.60;;
3881;SDS011;1956;53.482;10.238;2023-04-24T03:50:28;1.70;;;1.60;;
3881;SDS011;1956;53.482;10.238;2023-04-24T03:55:29;1.80;;;1.70;;
3881;SDS011;1956;53.482;10.238;2023-04-24T04:00:29;4.63;;;2.30;;
3881;SDS011;1956;53.482;10.238;2023-04-24T04:05:33;2.13;;;1.70;;
3881;SDS011;1956;53.482;10.238;2023-04-24T04:10:33;2.23;;;2.03;;
3881;SDS011;1956;53.482;10.238;2023-04-24T04:15:33;2.40;;;2.20;;
3881;SDS011;1956;53.482;10.238;2023-04-24T04:20:33;2.20;;;2.10;;
3881;SDS011;1956;53.482;10.238;2023-04-24T04:25:34;2.30;;;1.83;;
3881;SDS011;1956;53.482;10.238;2023-04-24T04:30:34;2.70;;;1.90;;
3881;SDS011;1956;53.482;10.238;2023-04-24T04:35:34;2.37;;;2.20;;
3881;SDS011;1956;53.482;10.238;2023-04-24T04:40:35;2.10;;;1.83;;
3881;SDS011;1956;53.482;10.238;2023-04-24T04:45:35;1.67;;;1.57;;
3881;SDS011;1956;53.482;10.238;2023-04-24T04:50:35;2.40;;;2.20;;
3881;SDS011;1956;53.482;10.238;2023-04-24T04:55:36;1.90;;;1.80;;
3881;SDS011;1956;53.482;10.238;2023-04-24T05:00:36;1.80;;;1.70;;
3881;SDS011;1956;53.482;10.238;2023-04-24T05:05:37;1.57;;;1.47;;
3881;SDS011;1956;53.482;10.238;2023-04-24T05:10:40;2.73;;;1.63;;
3881;SDS011;1956;53.482;10.238;2023-04-24T05:15:40;2.33;;;2.13;;
3881;SDS011;1956;53.482;10.238;2023-04-24T05:20:41;2.17;;;2.07;;
3881;SDS011;1956;53.482;10.238;2023-04-24T05:25:43;1.90;;;1.80;;
3881;SDS011;1956;53.482;10.238;2023-04-24T05:30:43;3.35;;;2.55;;
3881;SDS011;1956;53.482;10.238;2023-04-24T05:35:44;4.00;;;1.80;;
3881;SDS011;1956;53.482;10.238;2023-04-24T05:40:46;1.93;;;1.83;;
3881;SDS011;1956;53.482;10.238;2023-04-24T05:45:46;1.80;;;1.70;;
3881;SDS011;1956;53.482;10.238;2023-04-24T05:50:46;2.07;;;1.97;;
3881;SDS011;1956;53.482;10.238;2023-04-24T05:55:47;1.60;;;1.43;;
3881;SDS011;1956;53.482;10.238;2023-04-24T06:00:48;1.67;;;1.57;;
3881;SDS011;1956;53.482;10.238;2023-04-24T06:05:50;1.67;;;1.57;;
3881;SDS011;1956;53.482;10.238;2023-04-24T06:10:50;1.40;;;1.30;;
3881;SDS011;1956;53.482;10.238;2023-04-24T06:15:50;1.15;;;1.05;;
3881;SDS011;1956;53.482;10.238;2023-04-24T06:20:51;1.77;;;1.53;;
3881;SDS011;1956;53.482;10.238;2023-04-24T06:25:51;1.50;;;1.40;;
3881;SDS011;1956;53.482;10.238;2023-04-24T06:30:52;1.37;;;1.37;;
3881;SDS011;1956;53.482;10.238;2023-04-24T06:35:52;1.80;;;1.70;;
3881;SDS011;1956;53.482;10.238;2023-04-24T06:40:52;2.15;;;1.70;;
3881;SDS011;1956;53.482;10.238;2023-04-24T06:45:52;1.70;;;1.60;;
3881;SDS011;1956;53.482;10.238;2023-04-24T06:50:53;1.40;;;1.30;;
3881;SDS011;1956;53.482;10.238;2023-04-24T06:55:53;3.77;;;1.70;;
3881;SDS011;1956;53.482;10.238;2023-04-24T07:00:53;1.75;;;1.65;;
3881;SDS011;1956;53.482;10.238;2023-04-24T07:05:54;1.80;;;1.70;;
3881;SDS011;1956;53.482;10.238;2023-04-24T07:10:54;2.23;;;2.07;;
3881;SDS011;1956;53.482;10.238;2023-04-24T07:15:56;1.43;;;1.30;;
3881;SDS011;1956;53.482;10.238;2023-04-24T07:20:56;2.30;;;1.80;;
3881;SDS011;1956;53.482;10.238;2023-04-24T07:25:56;1.73;;;1.63;;
3881;SDS011;1956;53.482;10.238;2023-04-24T07:30:57;1.90;;;1.77;;
3881;SDS011;1956;53.482;10.238;2023-04-24T07:35:57;1.87;;;1.77;;
3881;SDS011;1956;53.482;10.238;2023-04-24T07:40:57;1.80;;;1.70;;
3881;SDS011;1956;53.482;10.238;2023-04-24T07:45:57;1.77;;;1.60;;
3881;SDS011;1956;53.482;10.238;2023-04-24T07:50:58;1.90;;;1.80;;
3881;SDS011;1956;53.482;10.238;2023-04-24T07:55:58;2.10;;;2.00;;
3881;SDS011;1956;53.482;10.238;2023-04-24T08:00:58;1.87;;;1.60;;
3881;SDS011;1956;53.482;10.238;2023-04-24T08:05:58;2.03;;;1.93;;
3881;SDS011;1956;53.482;10.238;2023-04-24T08:10:59;1.50;;;1.40;;
3881;SDS011;1956;53.482;10.238;2023-04-24T08:15:59;1.73;;;1.63;;
3881;SDS011;1956;53.482;10.238;2023-04-24T08:20:59;2.50;;;2.30;;
3881;SDS011;1956;53.482;10.238;2023-04-24T08:26:01;1.93;;;1.83;;
3881;SDS011;1956;53.482;10.238;2023-04-24T08:31:01;2.40;;;2.30;;
3881;SDS011;1956;53.482;10.238;2023-04-24T08:36:02;3.50;;;3.20;;
3881;SDS011;1956;53.482;10.238;2023-04-24T08:41:02;3.10;;;2.90;;
3881;SDS011;1956;53.482;10.238;2023-04-24T08:46:04;4.50;;;4.20;;
3881;SDS011;1956;53.482;10.238;2023-04-24T08:51:05;3.43;;;3.20;;
3881;SDS011;1956;53.482;10.238;2023-04-24T08:56:07;3.00;;;2.80;;
3881;SDS011;1956;53.482;10.238;2023-04-24T09:01:07;4.20;;;3.90;;
3881;SDS011;1956;53.482;10.238;2023-04-24T09:06:08;3.90;;;3.37;;
3881;SDS011;1956;53.482;10.238;2023-04-24T09:11:09;4.97;;;4.40;;
3881;SDS011;1956;53.482;10.238;2023-04-24T09:16:09;3.83;;;3.50;;
3881;SDS011;1956;53.482;10.238;2023-04-24T09:21:10;4.35;;;4.13;;
3881;SDS011;1956;53.482;10.238;2023-04-24T09:26:10;3.53;;;3.20;;
3881;SDS011;1956;53.482;10.238;2023-04-24T09:31:14;4.30;;;3.90;;
3881;SDS011;1956;53.482;10.238;2023-04-24T09:36:18;3.80;;;3.33;;
3881;SDS011;1956;53.482;10.238;2023-04-24T09:41:18;11.07;;;4.20;;
3881;SDS011;1956;53.482;10.238;2023-04-24T09:46:18;4.10;;;3.70;;
3881;SDS011;1956;53.482;10.238;2023-04-24T09:51:18;4.13;;;3.73;;
3881;SDS011;1956;53.482;10.238;2023-04-24T09:56:32;4.77;;;4.37;;
3881;SDS011;1956;53.482;10.238;2023-04-24T10:01:33;3.80;;;3.50;;
3881;SDS011;1956;53.482;10.238;2023-04-24T10:06:34;6.10;;;3.90;;
3881;SDS011;1956;53.482;10.238;2023-04-24T10:11:35;4.37;;;3.53;;
3881;SDS011;1956;53.482;10.238;2023-04-24T10:16:35;4.40;;;4.00;;
3881;SDS011;1956;53.482;10.238;2023-04-24T10:21:36;5.00;;;4.00;;
3881;SDS011;1956;53.482;10.238;2023-04-24T10:26:42;4.70;;;4.20;;
3881;SDS011;1956;53.482;10.238;2023-04-24T10:31:43;6.57;;;5.17;;
3881;SDS011;1956;53.482;10.238;2023-04-24T10:36:48;5.70;;;5.10;;
3881;SDS011;1956;53.482;10.238;2023-04-24T10:41:49;13.33;;;6.50;;
3881;SDS011;1956;53.482;10.238;2023-04-24T10:46:52;5.57;;;5.00;;
3881;SDS011;1956;53.482;10.238;2023-04-24T10:51:53;6.63;;;5.73;;
3881;SDS011;1956;53.482;10.238;2023-04-24T10:57:25;6.73;;;5.60;;
3881;SDS011;1956;53.482;10.238;2023-04-24T11:02:14;6.33;;;4.90;;
3881;SDS011;1956;53.482;10.238;2023-04-24T11:07:15;7.70;;;6.10;;
3881;SDS011;1956;53.482;10.238;2023-04-24T11:12:15;6.93;;;5.83;;
3881;SDS011;1956;53.482;10.238;2023-04-24T11:17:26;8.33;;;5.93;;
3881;SDS011;1956;53.482;10.238;2023-04-24T11:22:27;6.30;;;5.33;;
3881;SDS011;1956;53.482;10.238;2023-04-24T11:27:30;7.30;;;6.00;;
3881;SDS011;1956;53.482;10.238;2023-04-24T11:32:37;11.37;;;7.20;;
3881;SDS011;1956;53.482;10.238;2023-04-24T11:37:38;6.87;;;5.70;;
3881;SDS011;1956;53.482;10.238;2023-04-24T11:42:39;7.20;;;5.30;;
3881;SDS011;1956;53.482;10.238;2023-04-24T11:47:40;7.60;;;5.93;;
3881;SDS011;1956;53.482;10.238;2023-04-24T11:52:41;5.77;;;4.67;;
3881;SDS011;1956;53.482;10.238;2023-04-24T11:57:45;4.57;;;4.10;;
3881;SDS011;1956;53.482;10.238;2023-04-24T12:02:46;4.00;;;3.60;;
3881;SDS011;1956;53.482;10.238;2023-04-24T12:07:46;3.90;;;3.60;;
3881;SDS011;1956;53.482;10.238;2023-04-24T12:12:46;6.97;;;4.13;;
3881;SDS011;1956;53.482;10.238;2023-04-24T12:17:47;5.72;;;4.47;;
3881;SDS011;1956;53.482;10.238;2023-04-24T12:22:51;4.47;;;4.10;;
3881;SDS011;1956;53.482;10.238;2023-04-24T12:27:55;4.70;;;3.63;;
3881;SDS011;1956;53.482;10.238;2023-04-24T12:32:56;3.70;;;3.40;;
3881;SDS011;1956;53.482;10.238;2023-04-24T12:38:10;4.57;;;4.03;;
3881;SDS011;1956;53.482;10.238;2023-04-24T12:43:13;5.40;;;4.90;;
3881;SDS011;1956;53.482;10.238;2023-04-24T12:48:14;7.10;;;4.30;;
3881;SDS011;1956;53.482;10.238;2023-04-24T12:53:14;5.17;;;4.27;;
3881;SDS011;1956;53.482;10.238;2023-04-24T12:58:15;5.30;;;3.87;;
3881;SDS011;1956;53.482;10.238;2023-04-24T13:03:15;4.10;;;3.80;;
3881;SDS011;1956;53.482;10.238;2023-04-24T13:08:16;3.95;;;3.42;;
3881;SDS011;1956;53.482;10.238;2023-04-24T13:13:16;9.52;;;4.07;;
3881;SDS011;1956;53.482;10.238;2023-04-24T13:18:16;5.43;;;3.70;;
3881;SDS011;1956;53.482;10.238;2023-04-24T13:23:17;4.10;;;3.78;;
3881;SDS011;1956;53.482;10.238;2023-04-24T13:28:17;3.30;;;3.07;;
3881;SDS011;1956;53.482;10.238;2023-04-24T13:33:17;3.10;;;2.83;;
3881;SDS011;1956;53.482;10.238;2023-04-24T13:38:17;6.63;;;4.17;;
3881;SDS011;1956;53.482;10.238;2023-04-24T13:43:18;4.35;;;3.90;;
3881;SDS011;1956;53.482;10.238;2023-04-24T13:48:18;4.20;;;3.80;;
3881;SDS011;1956;53.482;10.238;2023-04-24T13:53:18;3.30;;;3.10;;
3881;SDS011;1956;53.482;10.238;2023-04-24T13:58:18;5.50;;;3.90;;
3881;SDS011;1956;53.482;10.238;2023-04-24T14:03:19;3.15;;;2.95;;
3881;SDS011;1956;53.482;10.238;2023-04-24T14:08:19;3.27;;;2.97;;
3881;SDS011;1956;53.482;10.238;2023-04-24T14:13:19;2.75;;;2.58;;
3881;SDS011;1956;53.482;10.238;2023-04-24T14:18:20;2.63;;;2.43;;
3881;SDS011;1956;53.482;10.238;2023-04-24T14:23:20;2.67;;;2.50;;
3881;SDS011;1956;53.482;10.238;2023-04-24T14:28:20;3.20;;;3.00;;
3881;SDS011;1956;53.482;10.238;2023-04-24T14:33:21;2.40;;;2.23;;
3881;SDS011;1956;53.482;10.238;2023-04-24T14:38:21;2.43;;;2.23;;
3881;SDS011;1956;53.482;10.238;2023-04-24T14:43:22;2.25;;;2.15;;
3881;SDS011;1956;53.482;10.238;2023-04-24T14:48:22;2.77;;;2.57;;
3881;SDS011;1956;53.482;10.238;2023-04-24T14:53:22;2.50;;;2.40;;
3881;SDS011;1956;53.482;10.238;2023-04-24T14:58:23;3.00;;;2.70;;
3881;SDS011;1956;53.482;10.238;2023-04-24T15:03:23;2.53;;;2.33;;
3881;SDS011;1956;53.482;10.238;2023-04-24T15:08:23;2.00;;;1.60;;
3881;SDS011;1956;53.482;10.238;2023-04-24T15:13:24;1.60;;;1.50;;
3881;SDS011;1956;53.482;10.238;2023-04-24T15:18:24;1.70;;;1.60;;
3881;SDS011;1956;53.482;10.238;2023-04-24T15:23:24;3.63;;;2.17;;
3881;SDS011;1956;53.482;10.238;2023-04-24T15:28:25;2.90;;;2.70;;
3881;SDS011;1956;53.482;10.238;2023-04-24T15:33:28;3.13;;;2.93;;
3881;SDS011;1956;53.482;10.238;2023-04-24T15:38:28;3.63;;;3.33;;
3881;SDS011;1956;53.482;10.238;2023-04-24T15:43:28;4.75;;;3.85;;
3881;SDS011;1956;53.482;10.238;2023-04-24T15:48:31;3.00;;;2.70;;
3881;SDS011;1956;53.482;10.238;2023-04-24T15:53:31;1.60;;;1.50;;
3881;SDS011;1956;53.482;10.238;2023-04-24T15:58:32;2.40;;;1.90;;
3881;SDS011;1956;53.482;10.238;2023-04-24T16:03:32;2.10;;;1.90;;
3881;SDS011;1956;53.482;10.238;2023-04-24T16:08:33;2.73;;;2.53;;
3881;SDS011;1956;53.482;10.238;2023-04-24T16:13:34;5.67;;;3.70;;
3881;SDS011;1956;53.482;10.238;2023-04-24T16:18:34;5.85;;;4.25;;
3881;SDS011;1956;53.482;10.238;2023-04-24T16:23:34;5.07;;;3.90;;
3881;SDS011;1956;53.482;10.238;2023-04-24T16:28:35;5.07;;;4.50;;
3881;SDS011;1956;53.482;10.238;2023-04-24T16:33:35;4.07;;;3.67;;
3881;SDS011;1956;53.482;10.238;2023-04-24T16:38:35;6.70;;;4.38;;
3881;SDS011;1956;53.482;10.238;2023-04-24T16:43:36;6.30;;;4.00;;
3881;SDS011;1956;53.482;10.238;2023-04-24T16:48:36;7.53;;;4.83;;
3881;SDS011;1956;53.482;10.238;2023-04-24T16:53:36;7.05;;;5.25;;
3881;SDS011;1956;53.482;10.238;2023-04-24T16:58:36;4.23;;;3.83;;
3881;SDS011;1956;53.482;10.238;2023-04-24T17:03:37;4.53;;;3.50;;
3881;SDS011;1956;53.482;10.238;2023-04-24T17:08:37;6.07;;;3.63;;
3881;SDS011;1956;53.482;10.238;2023-04-24T17:13:37;4.25;;;3.58;;
3881;SDS011;1956;53.482;10.238;2023-04-24T17:18:38;4.90;;;3.40;;
3881;SDS011;1956;53.482;10.238;2023-04-24T17:23:38;3.43;;;3.00;;
3881;SDS011;1956;53.482;10.238;2023-04-24T17:28:38;7.70;;;4.23;;
3881;SDS011;1956;53.482;10.238;2023-04-24T17:33:38;4.20;;;3.90;;
3881;SDS011;1956;53.482;10.238;2023-04-24T17:38:39;3.73;;;3.00;;
3881;SDS011;1956;53.482;10.238;2023-04-24T17:43:39;5.80;;;3.23;;
3881;SDS011;1956;53.482;10.238;2023-04-24T17:48:39;5.43;;;3.10;;
3881;SDS011;1956;53.482;10.238;2023-04-24T17:53:40;4.57;;;3.93;;
3881;SDS011;1956;53.482;10.238;2023-04-24T17:58:40;3.57;;;3.13;;
3881;SDS011;1956;53.482;10.238;2023-04-24T18:03:41;4.87;;;3.53;;
3881;SDS011;1956;53.482;10.238;2023-04-24T18:08:43;3.70;;;3.37;;
3881;SDS011;1956;53.482;10.238;2023-04-24T18:13:43;10.20;;;5.30;;
3881;SDS011;1956;53.482;10.238;2023-04-24T18:18:45;7.10;;;4.00;;
3881;SDS011;1956;53.482;10.238;2023-04-24T18:23:45;3.50;;;3.20;;
3881;SDS011;1956;53.482;10.238;2023-04-24T18:28:45;8.43;;;3.70;;
3881;SDS011;1956;53.482;10.238;2023-04-24T18:33:46;4.95;;;4.03;;
3881;SDS011;1956;53.482;10.238;2023-04-24T18:38:46;6.43;;;4.07;;
3881;SDS011;1956;53.482;10.238;2023-04-24T18:43:46;6.57;;;3.58;;
3881;SDS011;1956;53.482;10.238;2023-04-24T18:48:47;6.25;;;3.45;;
3881;SDS011;1956;53.482;10.238;2023-04-24T18:53:47;7.40;;;3.30;;
3881;SDS011;1956;53.482;10.238;2023-04-24T18:58:47;3.00;;;2.50;;
3881;SDS011;1956;53.482;10.238;2023-04-24T19:03:47;6.47;;;2.60;;
3881;SDS011;1956;53.482;10.238;2023-04-24T19:08:48;3.83;;;2.55;;
3881;SDS011;1956;53.482;10.238;2023-04-24T19:13:48;5.63;;;2.37;;
3881;SDS011;1956;53.482;10.238;2023-04-24T19:18:48;2.57;;;2.37;;
3881;SDS011;1956;53.482;10.238;2023-04-24T19:23:48;2.85;;;1.90;;
3881;SDS011;1956;53.482;10.238;2023-04-24T19:28:49;2.53;;;2.00;;
3881;SDS011;1956;53.482;10.238;2023-04-24T19:33:49;3.85;;;2.28;;
3881;SDS011;1956;53.482;10.238;2023-04-24T19:38:50;4.80;;;2.73;;
3881;SDS011;1956;53.482;10.238;2023-04-24T19:43:50;4.40;;;3.00;;
3881;SDS011;1956;53.482;10.238;2023-04-24T19:48:50;4.25;;;2.63;;
3881;SDS011;1956;53.482;10.238;2023-04-24T19:53:50;3.90;;;2.57;;
3881;SDS011;1956;53.482;10.238;2023-04-24T19:58:51;3.57;;;3.07;;
3881;SDS011;1956;53.482;10.238;2023-04-24T20:03:51;6.53;;;5.00;;
3881;SDS011;1956;53.482;10.238;2023-04-24T20:08:51;11.43;;;5.25;;
3881;SDS011;1956;53.482;10.238;2023-04-24T20:13:51;6.70;;;5.80;;
3881;SDS011;1956;53.482;10.238;2023-04-24T20:18:52;9.20;;;6.37;;
3881;SDS011;1956;53.482;10.238;2023-04-24T20:23:52;12.30;;;6.80;;
3881;SDS011;1956;53.482;10.238;2023-04-24T20:28:53;12.63;;;6.83;;
3881;SDS011;1956;53.482;10.238;2023-04-24T20:33:53;11.87;;;6.57;;
3881;SDS011;1956;53.482;10.238;2023-04-24T20:38:53;8.57;;;6.10;;
3881;SDS011;1956;53.482;10.238;2023-04-24T20:43:53;10.63;;;5.83;;
3881;SDS011;1956;53.482;10.238;2023-04-24T20:48:54;11.53;;;5.30;;
3881;SDS011;1956;53.482;10.238;2023-04-24T20:53:54;5.97;;;4.90;;
3881;SDS011;1956;53.482;10.238;2023-04-24T20:58:54;6.20;;;5.43;;
3881;SDS011;1956;53.482;10.238;2023-04-24T21:03:55;9.60;;;4.80;;
3881;SDS011;1956;53.482;10.238;2023-04-24T21:08:55;10.75;;;5.15;;
3881;SDS011;1956;53.482;10.238;2023-04-24T21:13:55;5.03;;;4.60;;
3881;SDS011;1956;53.482;10.238;2023-04-24T21:18:55;13.90;;;4.43;;
3881;SDS011;1956;53.482;10.238;2023-04-24T21:23:56;5.13;;;4.63;;
3881;SDS011;1956;53.482;10.238;2023-04-24T21:28:56;7.10;;;4.10;;
3881;SDS011;1956;53.482;10.238;2023-04-24T21:33:56;8.18;;;4.03;;
3881;SDS011;1956;53.482;10.238;2023-04-24T21:38:56;5.60;;;4.40;;
3881;SDS011;1956;53.482;10.238;2023-04-24T21:43:57;6.30;;;4.10;;
3881;SDS011;1956;53.482;10.238;2023-04-24T21:48:58;5.50;;;4.00;;
3881;SDS011;1956;53.482;10.238;2023-04-24T21:53:58;5.87;;;4.20;;
3881;SDS011;1956;53.482;10.238;2023-04-24T21:58:58;8.10;;;3.77;;
3881;SDS011;1956;53.482;10.238;2023-04-24T22:03:59;6.10;;;3.87;;
3881;SDS011;1956;53.482;10.238;2023-04-24T22:08:59;6.00;;;3.40;;
3881;SDS011;1956;53.482;10.238;2023-04-24T22:13:59;9.32;;;4.30;;
3881;SDS011;1956;53.482;10.238;2023-04-24T22:19:00;7.73;;;4.10;;
3881;SDS011;1956;53.482;10.238;2023-04-24T22:24:00;8.27;;;4.20;;
3881;SDS011;1956;53.482;10.238;2023-04-24T22:29:00;4.37;;;3.60;;
3881;SDS011;1956;53.482;10.238;2023-04-24T22:34:01;10.35;;;4.15;;
3881;SDS011;1956;53.482;10.238;2023-04-24T22:39:01;11.70;;;4.13;;
3881;SDS011;1956;53.482;10.238;2023-04-24T22:44:01;9.33;;;4.30;;
3881;SDS011;1956;53.482;10.238;2023-04-24T22:49:02;9.52;;;4.88;;
3881;SDS011;1956;53.482;10.238;2023-04-24T22:54:02;7.37;;;4.50;;
3881;SDS011;1956;53.482;10.238;2023-04-24T22:59:03;12.03;;;4.50;;
3881;SDS011;1956;53.482;10.238;2023-04-24T23:04:03;5.00;;;4.10;;
3881;SDS011;1956;53.482;10.238;2023-04-24T23:09:04;4.30;;;3.40;;
3881;SDS011;1956;53.482;10.238;2023-04-24T23:14:04;7.57;;;4.00;;
3881;SDS011;1956;53.482;10.238;2023-04-24T23:19:04;7.40;;;4.17;;
3881;SDS011;1956;53.482;10.238;2023-04-24T23:24:04;8.00;;;4.63;;
3881;SDS011;1956;53.482;10.238;2023-04-24T23:29:05;8.63;;;4.50;;
3881;SDS011;1956;53.482;10.238;2023-04-24T23:34:05;5.90;;;4.50;;
3881;SDS011;1956;53.482;10.238;2023-04-24T23:39:05;5.60;;;4.13;;
3881;SDS011;1956;53.482;10.238;2023-04-24T23:44:05;10.07;;;3.90;;
3881;SDS011;1956;53.482;10.238;2023-04-24T23:49:06;3.97;;;3.57;;
3881;SDS011;1956;53.482;10.238;2023-04-24T23:54:06;6.83;;;3.40;;
3881;SDS011;1956;53.482;10.238;2023-04-24T23:59:06;5.07;;;3.60;;
